Time;durP1;ratioP1;P1;durP2;ratioP2;P2;SDS_P1;SDS_P2;PMS_P1;PMS_P2;Temp;Humidity;BMP_temperature;BMP_pressure;BME280_temperature;BME280_humidity;BME280_pressure;Samples;Min_cycle;Max_cycle;Signal;HPM_P1;HPM_P2
2023/12/24 00:01:56;;;;;;;1.17;0.70;;;;;;;8.85;100.00;99584.47;7391238;19;20440;-69
2023/12/24 00:04:22;;;;;;;1.30;0.60;;;;;;;8.82;100.00;99595.44;7394702;19;20352;-69
2023/12/24 00:06:49;;;;;;;1.30;0.80;;;;;;;8.84;100.00;99593.41;7393512;19;20904;-69
2023/12/24 00:09:16;;;;;;;1.40;0.70;;;;;;;8.83;100.00;99585.66;7391854;19;20749;-69
2023/12/24 00:11:42;;;;;;;1.52;0.80;;;;;;;8.78;100.00;99589.69;7395557;19;20341;-69
2023/12/24 00:14:09;;;;;;;1.15;0.60;;;;;;;8.79;100.00;99579.94;7393307;19;20350;-68
2023/12/24 00:16:39;;;;;;;1.05;0.60;;;;;;;8.78;100.00;99594.19;7394654;19;20709;-68
2023/12/24 00:19:06;;;;;;;1.80;0.70;;;;;;;8.79;100.00;99590.50;7393656;19;20406;-68
2023/12/24 00:21:33;;;;;;;1.60;0.70;;;;;;;8.77;100.00;99592.53;7393656;19;20408;-68
2023/12/24 00:23:59;;;;;;;1.17;0.60;;;;;;;8.77;100.00;99592.53;7393611;19;20368;-68
2023/12/24 00:26:26;;;;;;;0.88;0.60;;;;;;;8.77;100.00;99603.09;7391700;19;20384;-68
2023/12/24 00:28:54;;;;;;;1.70;0.70;;;;;;;8.78;100.00;99599.47;7391813;19;20442;-68
2023/12/24 00:31:21;;;;;;;1.40;0.70;;;;;;;8.74;100.00;99608.78;7393008;19;20369;-68
2023/12/24 00:33:49;;;;;;;1.48;0.90;;;;;;;8.80;100.00;99592.16;7391423;19;20359;-68
2023/12/24 00:36:16;;;;;;;1.90;0.75;;;;;;;8.75;100.00;99607.75;7391779;19;20659;-69
2023/12/24 00:38:43;;;;;;;1.33;0.60;;;;;;;8.77;100.00;99614.50;7389816;19;20372;-69
2023/12/24 00:41:10;;;;;;;1.85;0.50;;;;;;;8.72;100.00;99595.75;7392278;19;20705;-68
2023/12/24 00:43:37;;;;;;;1.40;0.80;;;;;;;8.75;100.00;99605.13;7392145;19;20356;-69
2023/12/24 00:46:04;;;;;;;1.30;0.70;;;;;;;8.72;100.00;99622.19;7392507;19;20352;-70
2023/12/24 00:48:30;;;;;;;1.30;0.70;;;;;;;8.73;100.00;99607.13;7390656;19;20683;-69
2023/12/24 00:50:57;;;;;;;1.55;0.70;;;;;;;8.71;100.00;99594.13;7393663;19;21245;-70
2023/12/24 00:53:24;;;;;;;2.00;0.80;;;;;;;8.70;100.00;99584.53;7394297;19;20420;-70
2023/12/24 00:55:51;;;;;;;1.73;0.97;;;;;;;8.69;100.00;99582.06;7392438;19;20428;-70
2023/12/24 00:58:18;;;;;;;2.13;0.88;;;;;;;8.70;100.00;99586.38;7390834;19;20336;-70
2023/12/24 01:00:46;;;;;;;1.80;1.00;;;;;;;8.71;100.00;99572.13;7390024;19;20356;-70
2023/12/24 01:03:13;;;;;;;1.88;1.13;;;;;;;8.68;100.00;99575.16;7391894;19;20344;-70
2023/12/24 01:05:40;;;;;;;2.40;1.20;;;;;;;8.68;100.00;99572.53;7391127;19;20368;-70
2023/12/24 01:08:07;;;;;;;2.08;1.20;;;;;;;8.71;100.00;99588.00;7391986;19;20344;-70
2023/12/24 01:10:34;;;;;;;2.22;1.30;;;;;;;8.70;100.00;99581.09;7390206;19;20337;-70
2023/12/24 01:13:01;;;;;;;3.58;1.40;;;;;;;8.69;100.00;99577.63;7391898;19;20697;-70
2023/12/24 01:15:27;;;;;;;2.20;1.30;;;;;;;8.70;100.00;99579.25;7393249;19;20357;-70
2023/12/24 01:17:54;;;;;;;2.45;1.48;;;;;;;8.70;100.00;99587.19;7392015;19;20376;-70
2023/12/24 01:20:23;;;;;;;2.50;1.60;;;;;;;8.69;100.00;99580.28;7391432;19;20340;-71
2023/12/24 01:22:50;;;;;;;3.20;1.60;;;;;;;8.72;100.00;99600.22;7389531;19;20883;-70
2023/12/24 01:25:17;;;;;;;3.13;1.58;;;;;;;8.70;100.00;99568.69;7388975;19;20352;-70
2023/12/24 01:27:44;;;;;;;3.08;1.80;;;;;;;8.72;100.00;99594.94;7389888;19;20424;-70
2023/12/24 01:30:11;;;;;;;3.08;1.67;;;;;;;8.67;100.00;99597.31;7387647;19;20360;-69
2023/12/24 01:32:37;;;;;;;3.13;1.70;;;;;;;8.63;100.00;99583.66;7388928;19;20382;-70
2023/12/24 01:35:04;;;;;;;2.60;1.70;;;;;;;8.65;100.00;99583.47;7390210;19;20380;-69
2023/12/24 01:37:31;;;;;;;2.70;2.00;;;;;;;8.65;100.00;99600.16;7389963;19;20368;-70
2023/12/24 01:39:59;;;;;;;3.83;2.22;;;;;;;8.61;100.00;99588.31;7390643;19;20372;-69
2023/12/24 01:42:26;;;;;;;3.35;2.15;;;;;;;8.65;100.00;99583.47;7391453;19;20372;-69
2023/12/24 01:44:52;;;;;;;3.47;2.50;;;;;;;8.62;100.00;99579.38;7387471;19;20443;-69
2023/12/24 01:47:20;;;;;;;3.17;2.10;;;;;;;8.59;100.00;99576.31;7390305;19;20353;-70
2023/12/24 01:49:48;;;;;;;3.13;2.30;;;;;;;8.61;100.00;99569.81;7391309;19;21128;-69
2023/12/24 01:52:16;;;;;;;3.90;2.60;;;;;;;8.59;100.00;99585.06;7391770;19;20518;-69
2023/12/24 01:54:47;;;;;;;4.45;2.40;;;;;;;8.64;100.00;99581.84;7389663;19;20361;-69
2023/12/24 01:57:15;;;;;;;4.18;2.50;;;;;;;8.61;100.00;99587.50;7391379;19;20394;-69
2023/12/24 01:59:42;;;;;;;4.45;2.40;;;;;;;8.61;100.00;99582.19;7389383;19;20364;-70
2023/12/24 02:02:09;;;;;;;2.55;2.20;;;;;;;8.58;100.00;99575.47;7385812;19;20360;-69
2023/12/24 02:04:36;;;;;;;4.05;2.45;;;;;;;8.61;100.00;99571.63;7387110;19;20899;-70
2023/12/24 02:07:04;;;;;;;3.72;2.30;;;;;;;8.60;100.00;99589.31;7388097;19;20364;-70
2023/12/24 02:09:31;;;;;;;3.85;2.30;;;;;;;8.62;100.00;99575.91;7389219;19;20360;-70
2023/12/24 02:11:57;;;;;;;3.93;2.30;;;;;;;8.62;100.00;99574.09;7389991;19;20426;-69
2023/12/24 02:14:24;;;;;;;2.95;2.20;;;;;;;8.65;100.00;99578.16;7389699;19;20364;-71
2023/12/24 02:16:55;;;;;;;3.28;2.40;;;;;;;8.61;100.00;99577.75;7388028;19;20436;-71
2023/12/24 02:19:22;;;;;;;3.00;2.20;;;;;;;8.57;100.00;99566.72;7388490;19;20367;-70
2023/12/24 02:21:48;;;;;;;2.80;2.30;;;;;;;8.58;100.00;99567.53;7389334;19;20702;-71
2023/12/24 02:24:16;;;;;;;3.55;2.35;;;;;;;8.59;100.00;99558.63;7390437;19;20718;-71
2023/12/24 02:27:16;;;;;;;3.10;2.40;;;;;;;8.62;100.00;99554.78;7386263;19;20666;-71
2023/12/24 02:29:48;;;;;;;4.47;2.60;;;;;;;8.61;100.00;99546.03;7388692;19;20392;-71
2023/12/24 02:32:16;;;;;;;3.88;2.50;;;;;;;8.61;100.00;99538.09;7388810;19;20362;-71
2023/12/24 02:34:47;;;;;;;3.20;2.60;;;;;;;8.59;100.00;99547.25;7388855;19;20380;-71
2023/12/24 02:37:15;;;;;;;2.83;2.25;;;;;;;8.57;100.00;99550.06;7387813;19;20438;-71
2023/12/24 02:39:42;;;;;;;2.90;2.42;;;;;;;8.58;100.00;99538.47;7390529;19;20361;-70
2023/12/24 02:42:09;;;;;;;3.50;2.55;;;;;;;8.57;100.00;99535.00;7388060;19;20361;-70
2023/12/24 02:44:37;;;;;;;5.47;2.70;;;;;;;8.60;100.00;99535.63;7388356;19;20364;-70
2023/12/24 02:47:05;;;;;;;3.00;2.60;;;;;;;8.63;100.00;99532.59;7390008;19;20361;-70
2023/12/24 02:49:32;;;;;;;5.15;3.10;;;;;;;8.61;100.00;99526.69;7386910;19;20357;-71
2023/12/24 02:51:59;;;;;;;3.88;2.90;;;;;;;8.63;100.00;99522.03;7388607;19;20490;-71
2023/12/24 02:54:26;;;;;;;4.10;2.90;;;;;;;8.63;100.00;99516.75;7387525;19;20895;-71
2023/12/24 02:56:52;;;;;;;3.13;2.53;;;;;;;8.64;100.00;99521.03;7391592;19;20356;-71
2023/12/24 02:59:19;;;;;;;4.78;2.78;;;;;;;8.66;100.00;99517.19;7395134;19;20344;-71
2023/12/24 03:01:46;;;;;;;4.05;3.00;;;;;;;8.63;100.00;99516.75;7391068;19;20360;-71
2023/12/24 03:04:12;;;;;;;4.07;3.30;;;;;;;8.67;100.00;99526.78;7393455;19;20670;-71
2023/12/24 03:06:39;;;;;;;6.70;3.70;;;;;;;8.66;100.00;99524.31;7395210;19;21010;-71
2023/12/24 03:09:06;;;;;;;3.95;3.38;;;;;;;8.69;100.00;99534.50;7395404;19;20357;-70
2023/12/24 03:11:34;;;;;;;4.07;3.30;;;;;;;8.66;100.00;99519.03;7394447;19;20341;-70
2023/12/24 03:14:01;;;;;;;4.60;3.40;;;;;;;8.66;100.00;99516.38;7394094;19;20435;-70
2023/12/24 03:16:28;;;;;;;6.18;3.50;;;;;;;8.67;100.00;99525.94;7395363;19;20718;-70
2023/12/24 03:18:55;;;;;;;4.57;3.20;;;;;;;8.68;100.00;99509.88;7393652;19;20942;-70
2023/12/24 03:21:22;;;;;;;4.25;3.13;;;;;;;8.70;100.00;99497.28;7393723;19;20359;-70
2023/12/24 03:23:48;;;;;;;5.35;3.53;;;;;;;8.69;100.00;99506.25;7396751;19;20361;-70
2023/12/24 03:26:20;;;;;;;4.97;3.63;;;;;;;8.68;100.00;99515.16;7391641;19;20364;-69
2023/12/24 03:28:48;;;;;;;5.50;3.67;;;;;;;8.68;100.00;99507.25;7396076;19;20464;-69
2023/12/24 03:31:15;;;;;;;4.35;3.70;;;;;;;8.73;100.00;99509.31;7390017;19;20369;-70
2023/12/24 03:33:43;;;;;;;4.55;3.60;;;;;;;8.71;100.00;99519.25;7395125;19;20332;-69
2023/12/24 03:36:10;;;;;;;5.07;4.03;;;;;;;8.70;100.00;99509.69;7392825;19;20363;-70
2023/12/24 03:38:37;;;;;;;6.43;4.03;;;;;;;8.72;100.00;99505.84;7394845;19;20907;-69
2023/12/24 03:41:04;;;;;;;5.03;3.65;;;;;;;8.69;100.00;99510.69;7392030;19;20352;-70
2023/12/24 03:43:31;;;;;;;5.38;4.10;;;;;;;8.71;100.00;99508.69;7396054;19;20892;-70
2023/12/24 03:45:58;;;;;;;4.93;4.07;;;;;;;8.71;100.00;99524.53;7394160;19;20383;-70
2023/12/24 03:48:24;;;;;;;5.55;4.20;;;;;;;8.70;100.00;99507.06;7392631;19;20375;-70
2023/12/24 03:50:51;;;;;;;6.70;4.55;;;;;;;8.70;100.00;99501.75;7393595;19;20368;-70
2023/12/24 03:53:18;;;;;;;6.60;5.03;;;;;;;8.67;100.00;99512.72;7395404;19;20393;-69
2023/12/24 03:55:45;;;;;;;6.35;5.00;;;;;;;8.63;100.00;99516.75;7395471;19;20361;-70
2023/12/24 03:58:11;;;;;;;6.07;5.05;;;;;;;8.64;100.00;99516.56;7390698;19;21063;-70
2023/12/24 04:00:38;;;;;;;8.20;5.72;;;;;;;8.64;100.00;99526.31;7394095;19;20369;-70
2023/12/24 04:03:05;;;;;;;6.75;6.05;;;;;;;8.66;100.00;99580.63;7393529;19;20706;-70
2023/12/24 04:05:32;;;;;;;7.35;6.57;;;;;;;8.65;100.00;99535.88;7395197;19;20777;-70
2023/12/24 04:07:58;;;;;;;8.35;7.22;;;;;;;8.69;100.00;99505.41;7390388;19;20366;-69
2023/12/24 04:10:25;;;;;;;10.02;7.93;;;;;;;8.64;100.00;99518.41;7392614;19;20364;-69
2023/12/24 04:12:52;;;;;;;8.63;7.75;;;;;;;8.65;100.00;99509.44;7393512;19;20368;-69
2023/12/24 04:15:19;;;;;;;10.90;9.10;;;;;;;8.66;100.00;99532.25;7392709;19;20402;-69
2023/12/24 04:17:46;;;;;;;10.80;9.23;;;;;;;8.68;100.00;99509.06;7392574;19;20364;-69
2023/12/24 04:20:13;;;;;;;11.07;9.40;;;;;;;8.67;100.00;99508.25;7391410;19;20372;-69
2023/12/24 04:22:40;;;;;;;11.77;10.02;;;;;;;8.70;100.00;99507.06;7392014;19;20373;-69
2023/12/24 04:25:07;;;;;;;11.73;10.18;;;;;;;8.67;100.00;99504.78;7394008;19;20396;-69
2023/12/24 04:27:34;;;;;;;11.57;10.37;;;;;;;8.69;100.00;99500.97;7389665;19;20690;-69
2023/12/24 04:30:01;;;;;;;14.55;11.38;;;;;;;8.69;100.00;99495.66;7393658;19;20381;-69
2023/12/24 04:32:28;;;;;;;14.43;11.55;;;;;;;8.69;100.00;99489.53;7390211;19;20352;-70
2023/12/24 04:34:55;;;;;;;13.15;11.75;;;;;;;8.68;100.00;99491.38;7391126;19;20932;-70
2023/12/24 04:37:22;;;;;;;15.48;11.25;;;;;;;8.71;100.00;99484.88;7392937;19;20396;-70
2023/12/24 04:39:49;;;;;;;12.55;10.60;;;;;;;8.69;100.00;99526.56;7391887;19;20448;-70
2023/12/24 04:42:16;;;;;;;13.15;10.90;;;;;;;8.73;100.00;99489.00;7392883;19;20856;-70
2023/12/24 04:44:42;;;;;;;14.30;10.98;;;;;;;8.72;100.00;99484.69;7389870;19;20361;-69
2023/12/24 04:47:09;;;;;;;12.77;10.17;;;;;;;8.71;100.00;99490.16;7391419;19;20399;-69
2023/12/24 04:49:37;;;;;;;13.48;9.70;;;;;;;8.72;100.00;99484.69;7392159;19;20356;-70
2023/12/24 04:52:04;;;;;;;9.93;8.90;;;;;;;8.72;100.00;99481.25;7390784;19;20864;-70
2023/12/24 04:54:31;;;;;;;10.30;9.13;;;;;;;8.77;100.00;99476.19;7391180;19;20376;-70
2023/12/24 04:56:58;;;;;;;11.52;8.60;;;;;;;8.75;100.00;99484.28;7392825;19;20361;-69
2023/12/24 04:59:26;;;;;;;9.43;8.00;;;;;;;8.75;100.00;99494.06;7389485;19;20361;-70
2023/12/24 05:01:53;;;;;;;9.55;7.40;;;;;;;8.73;100.00;99453.78;7387413;19;20800;-69
2023/12/24 05:04:19;;;;;;;9.60;7.45;;;;;;;8.75;100.00;99473.72;7389516;19;20373;-69
2023/12/24 05:06:46;;;;;;;10.93;7.20;;;;;;;8.78;100.00;99472.53;7389050;19;20337;-69
2023/12/24 05:09:13;;;;;;;8.48;6.68;;;;;;;8.81;100.00;99455.47;7392200;19;20382;-69
2023/12/24 05:11:40;;;;;;;6.78;6.07;;;;;;;8.77;100.00;99462.97;7380728;19;20377;-70
2023/12/24 05:14:07;;;;;;;7.23;6.10;;;;;;;8.81;100.00;99473.97;7393266;19;20478;-70
2023/12/24 05:16:34;;;;;;;8.32;5.70;;;;;;;8.83;100.00;99446.31;7389715;19;20344;-70
2023/12/24 05:19:01;;;;;;;8.17;5.40;;;;;;;8.80;100.00;99438.78;7392238;19;20926;-69
2023/12/24 05:21:29;;;;;;;5.85;4.82;;;;;;;8.83;100.00;99487.81;7388983;19;20356;-69
2023/12/24 05:23:57;;;;;;;6.73;4.30;;;;;;;8.85;100.00;99462.81;7389053;19;20356;-69
2023/12/24 05:26:25;;;;;;;5.55;4.00;;;;;;;8.86;100.00;99458.34;7389445;19;20353;-70
2023/12/24 05:28:53;;;;;;;5.25;3.78;;;;;;;8.87;100.00;99478.50;7390797;19;20377;-69
2023/12/24 05:31:19;;;;;;;4.07;3.00;;;;;;;8.85;100.00;99472.59;7389477;19;20373;-69
2023/12/24 05:33:46;;;;;;;4.22;3.00;;;;;;;8.86;100.00;99450.41;7391543;19;20381;-69
2023/12/24 05:36:14;;;;;;;4.63;2.80;;;;;;;8.87;100.00;99460.78;7392800;19;20357;-69
2023/12/24 05:38:41;;;;;;;4.43;2.85;;;;;;;8.89;100.00;99442.91;7388539;19;20408;-69
2023/12/24 05:41:12;;;;;;;3.65;2.53;;;;;;;8.91;100.00;99437.44;7391790;19;20372;-69
2023/12/24 05:43:40;;;;;;;3.22;2.60;;;;;;;8.91;100.00;99443.53;7390884;19;20422;-69
2023/12/24 05:46:13;;;;;;;3.50;2.25;;;;;;;8.97;100.00;99440.09;7391215;19;20360;-68
2023/12/24 05:48:41;;;;;;;2.70;2.22;;;;;;;9.01;100.00;99440.53;7390737;19;20440;-69
2023/12/24 05:51:08;;;;;;;3.10;2.20;;;;;;;9.02;100.00;99441.34;7389442;19;20415;-69
2023/12/24 05:53:35;;;;;;;3.20;2.33;;;;;;;9.02;100.00;99430.78;7392795;19;20352;-69
2023/12/24 05:56:02;;;;;;;4.38;2.42;;;;;;;9.06;100.00;99450.53;7391149;19;20711;-69
2023/12/24 05:58:29;;;;;;;3.38;2.20;;;;;;;9.10;100.00;99417.38;7391383;19;20373;-69
2023/12/24 06:00:55;;;;;;;3.47;2.15;;;;;;;9.06;100.00;99416.94;7388971;19;20368;-68
2023/12/24 06:03:23;;;;;;;3.75;2.20;;;;;;;9.09;100.00;99418.38;7392221;19;20376;-68
2023/12/24 06:05:50;;;;;;;2.80;2.07;;;;;;;9.11;100.00;99413.72;7389063;19;20357;-68
2023/12/24 06:08:17;;;;;;;3.10;1.80;;;;;;;9.15;100.00;99415.75;7391026;19;20399;-68
2023/12/24 06:10:45;;;;;;;2.80;1.90;;;;;;;9.17;100.00;99440.19;7388861;19;20390;-68
2023/12/24 06:13:12;;;;;;;2.85;1.80;;;;;;;9.16;100.00;99411.31;7389846;19;20731;-68
2023/12/24 06:15:38;;;;;;;2.80;1.70;;;;;;;9.18;100.00;99417.22;7390488;19;20425;-68
2023/12/24 06:18:05;;;;;;;3.10;1.90;;;;;;;9.22;100.00;99425.56;7392202;19;20365;-68
2023/12/24 06:20:32;;;;;;;2.60;1.90;;;;;;;9.28;100.00;99415.00;7388542;19;20361;-68
2023/12/24 06:22:59;;;;;;;2.60;1.88;;;;;;;9.23;100.00;99422.72;7390650;19;20717;-68
2023/12/24 06:25:26;;;;;;;2.40;1.83;;;;;;;9.26;100.00;99417.03;7391410;19;20707;-68
2023/12/24 06:27:53;;;;;;;3.72;2.10;;;;;;;9.24;100.00;99427.00;7390446;19;20336;-68
2023/12/24 06:30:21;;;;;;;2.70;1.90;;;;;;;9.23;100.00;99406.84;7389831;19;20376;-68
2023/12/24 06:32:48;;;;;;;3.80;2.13;;;;;;;9.25;100.00;99451.66;7395195;19;20452;-68
2023/12/24 06:35:15;;;;;;;2.65;2.10;;;;;;;9.29;100.00;99403.41;7398974;19;20397;-68
2023/12/24 06:37:42;;;;;;;2.67;2.07;;;;;;;9.30;100.00;99407.69;7396153;19;20369;-68
2023/12/24 06:40:09;;;;;;;2.35;1.90;;;;;;;9.31;100.00;99404.03;7396828;19;20371;-68
2023/12/24 06:42:36;;;;;;;3.33;1.80;;;;;;;9.31;100.00;99404.03;7397001;19;20940;-68
2023/12/24 06:45:03;;;;;;;2.30;1.70;;;;;;;9.35;100.00;99399.13;7398209;19;20369;-68
2023/12/24 06:47:30;;;;;;;2.50;1.80;;;;;;;9.36;100.00;99406.88;7397401;19;20356;-69
2023/12/24 06:49:56;;;;;;;2.20;1.73;;;;;;;9.36;100.00;99401.59;7398807;19;20877;-68
2023/12/24 06:52:23;;;;;;;2.95;1.70;;;;;;;9.35;100.00;99421.16;7393506;19;20345;-69
2023/12/24 06:54:50;;;;;;;2.00;1.50;;;;;;;9.38;100.00;99425.22;7397788;19;20832;-68
2023/12/24 06:57:16;;;;;;;3.10;1.60;;;;;;;9.37;100.00;99419.13;7395351;19;20809;-68
2023/12/24 06:59:43;;;;;;;2.28;1.67;;;;;;;9.42;100.00;99409.78;7396884;19;20369;-68
2023/12/24 07:02:10;;;;;;;1.90;1.40;;;;;;;9.40;100.00;99407.31;7395137;19;20368;-69
2023/12/24 07:04:37;;;;;;;2.35;1.60;;;;;;;9.39;100.00;99409.16;7397044;19;20428;-68
2023/12/24 07:07:03;;;;;;;1.98;1.50;;;;;;;9.41;100.00;99402.84;7396540;19;20381;-69
2023/12/24 07:09:30;;;;;;;2.08;1.48;;;;;;;9.39;100.00;99416.25;7396773;19;20869;-69
2023/12/24 07:11:57;;;;;;;3.40;1.50;;;;;;;9.37;100.00;99397.94;7393592;19;20371;-68
2023/12/24 07:14:23;;;;;;;2.08;1.40;;;;;;;9.41;100.00;99387.75;7393154;19;20979;-69
2023/12/24 07:16:50;;;;;;;2.10;1.42;;;;;;;9.41;100.00;99384.31;7394336;19;20369;-69
2023/12/24 07:19:17;;;;;;;2.47;1.60;;;;;;;9.41;100.00;99392.25;7395953;19;20440;-69
2023/12/24 07:21:44;;;;;;;2.50;1.35;;;;;;;9.45;100.00;99377.59;7391774;19;20448;-68
2023/12/24 07:24:11;;;;;;;2.33;1.30;;;;;;;9.47;100.00;99378.22;7396540;19;20340;-69
2023/12/24 07:26:38;;;;;;;3.45;1.20;;;;;;;9.50;100.00;99375.16;7394930;19;20377;-68
2023/12/24 07:29:04;;;;;;;1.30;1.00;;;;;;;9.56;100.00;99374.34;7395947;19;20364;-68
2023/12/24 07:31:31;;;;;;;1.40;1.05;;;;;;;9.58;100.00;99382.91;7395137;19;20487;-69
2023/12/24 07:33:58;;;;;;;2.10;1.10;;;;;;;9.61;100.00;99379.88;7395962;19;20394;-68
2023/12/24 07:36:24;;;;;;;1.70;1.00;;;;;;;9.64;100.00;99376.81;7395298;19;20381;-68
2023/12/24 07:38:51;;;;;;;1.40;1.00;;;;;;;9.67;100.00;99388.84;7395196;19;20369;-68
2023/12/24 07:41:18;;;;;;;1.73;0.90;;;;;;;9.73;100.00;99386.22;7395667;19;20340;-68
2023/12/24 07:43:45;;;;;;;1.90;0.85;;;;;;;9.75;100.00;99378.06;7395300;19;20364;-71
2023/12/24 07:46:12;;;;;;;1.90;0.90;;;;;;;9.78;100.00;99373.19;7395677;19;20381;-71
2023/12/24 07:48:38;;;;;;;1.33;0.75;;;;;;;9.85;100.00;99377.66;7394442;19;20723;-71
2023/12/24 07:51:05;;;;;;;1.05;0.70;;;;;;;9.87;100.00;99370.34;7395261;19;20440;-71
2023/12/24 07:53:32;;;;;;;1.30;0.77;;;;;;;9.90;100.00;99361.97;7394697;19;20384;-71
2023/12/24 07:55:58;;;;;;;1.52;0.80;;;;;;;9.93;100.00;99361.59;7396728;19;20448;-70
2023/12/24 07:58:25;;;;;;;1.50;0.70;;;;;;;9.96;100.00;99374.41;7395774;19;20755;-70
2023/12/24 08:00:52;;;;;;;1.13;0.65;;;;;;;9.99;100.00;99376.66;7394005;19;20385;-70
2023/12/24 08:03:18;;;;;;;1.10;0.53;;;;;;;10.05;100.00;99359.97;7395754;19;20398;-70
2023/12/24 08:05:45;;;;;;;1.08;0.40;;;;;;;10.09;100.00;99369.09;7394275;19;20365;-70
2023/12/24 08:08:12;;;;;;;0.90;0.52;;;;;;;10.13;100.00;99365.03;7395766;19;20365;-70
2023/12/24 08:10:39;;;;;;;0.65;0.47;;;;;;;10.19;100.00;99372.16;7394630;19;20956;-69
2023/12/24 08:13:05;;;;;;;0.68;0.40;;;;;;;10.19;100.00;99374.00;7390773;19;20362;-69
2023/12/24 08:15:40;;;;;;;0.75;0.50;;;;;;;10.21;100.00;99356.88;7396106;19;20442;-69
2023/12/24 08:18:06;;;;;;;0.70;0.40;;;;;;;10.23;100.00;99348.72;7393858;19;20602;-69
2023/12/24 08:20:33;;;;;;;1.00;0.40;;;;;;;10.29;100.00;99358.53;7395107;19;20364;-68
2023/12/24 08:23:00;;;;;;;1.08;0.40;;;;;;;10.32;100.00;99349.34;7392780;19;20685;-69
2023/12/24 08:25:27;;;;;;;1.73;0.50;;;;;;;10.41;100.00;99345.44;7394477;19;20379;-68
2023/12/24 08:27:54;;;;;;;1.30;0.50;;;;;;;10.44;100.00;99358.31;7394471;19;20751;-68
2023/12/24 08:30:20;;;;;;;1.33;0.50;;;;;;;10.48;100.00;99356.88;7393312;19;20357;-68
2023/12/24 08:32:47;;;;;;;0.70;0.40;;;;;;;10.48;100.00;99348.13;7393108;19;20457;-68
2023/12/24 08:35:14;;;;;;;0.57;0.40;;;;;;;10.51;100.00;99339.75;7393156;19;20383;-68
2023/12/24 08:37:41;;;;;;;2.20;0.70;;;;;;;10.54;100.00;99342.78;7394616;19;20876;-69
2023/12/24 08:40:08;;;;;;;0.65;0.40;;;;;;;10.52;100.00;99352.78;7393337;19;20381;-68
2023/12/24 08:42:34;;;;;;;1.27;0.60;;;;;;;10.59;100.00;99348.28;7393354;19;20864;-68
2023/12/24 08:45:01;;;;;;;0.70;0.40;;;;;;;10.62;100.00;99368.25;7389940;19;20875;-68
2023/12/24 08:47:28;;;;;;;0.68;0.50;;;;;;;10.65;100.00;99365.22;7392787;19;20376;-67
2023/12/24 08:49:56;;;;;;;0.80;0.60;;;;;;;10.68;100.00;99356.81;7393353;19;20944;-68
2023/12/24 08:52:24;;;;;;;1.80;0.50;;;;;;;10.66;100.00;99372.13;7390460;19;20436;-68
2023/12/24 08:54:51;;;;;;;0.80;0.50;;;;;;;10.69;100.00;99369.06;7389508;19;20372;-68
2023/12/24 08:57:18;;;;;;;0.73;0.43;;;;;;;10.74;100.00;99365.78;7393301;19;20372;-67
2023/12/24 08:59:44;;;;;;;0.80;0.40;;;;;;;10.73;100.00;99361.50;7391889;19;20364;-67
2023/12/24 09:02:11;;;;;;;0.73;0.50;;;;;;;10.76;100.00;99369.06;7390025;19;20364;-67
2023/12/24 09:04:38;;;;;;;0.60;0.40;;;;;;;10.74;100.00;99355.19;7392891;19;20372;-67
2023/12/24 09:07:05;;;;;;;0.85;0.45;;;;;;;10.78;100.00;99348.44;7391006;19;20356;-67
2023/12/24 09:09:31;;;;;;;0.60;0.40;;;;;;;10.79;100.00;99352.69;7392534;19;21047;-67
2023/12/24 09:11:58;;;;;;;1.13;0.50;;;;;;;10.76;100.00;99338.03;7392611;19;20348;-67
2023/12/24 09:14:24;;;;;;;1.00;0.40;;;;;;;10.72;100.00;99354.56;7392689;19;20734;-67
2023/12/24 09:16:51;;;;;;;0.70;0.50;;;;;;;10.79;100.00;99369.44;7391138;19;20845;-65
2023/12/24 09:19:18;;;;;;;1.00;0.40;;;;;;;10.80;100.00;99351.69;7391114;19;20356;-66
2023/12/24 09:21:45;;;;;;;1.25;0.57;;;;;;;10.84;100.00;99352.91;7390511;19;20856;-65
2023/12/24 09:24:11;;;;;;;1.08;0.70;;;;;;;10.88;100.00;99340.03;7392029;19;20384;-65
2023/12/24 09:26:38;;;;;;;0.98;0.50;;;;;;;10.91;100.00;99351.03;7391612;19;20384;-65
2023/12/24 09:29:05;;;;;;;1.65;0.50;;;;;;;10.96;100.00;99353.06;7391517;19;20360;-66
2023/12/24 09:31:32;;;;;;;1.10;0.52;;;;;;;11.02;100.00;99360.97;7392394;19;20387;-66
2023/12/24 09:33:59;;;;;;;1.05;0.50;;;;;;;11.09;100.00;99346.88;7392396;19;20375;-66
2023/12/24 09:36:26;;;;;;;1.20;0.40;;;;;;;11.07;100.00;99372.81;7392438;19;20368;-66
2023/12/24 09:38:53;;;;;;;1.10;0.40;;;;;;;11.12;100.00;99351.78;7391720;19;20864;-65
2023/12/24 09:41:20;;;;;;;1.45;0.50;;;;;;;11.12;100.00;99352.59;7390843;19;20366;-66
2023/12/24 09:43:47;;;;;;;0.60;0.40;;;;;;;11.20;100.00;99359.50;7392677;19;20791;-66
2023/12/24 09:46:14;;;;;;;0.52;0.38;;;;;;;11.17;100.00;99358.06;7392589;19;20947;-66
2023/12/24 09:48:41;;;;;;;0.80;0.50;;;;;;;11.20;100.00;99351.53;7393394;19;20352;-66
2023/12/24 09:51:08;;;;;;;0.80;0.40;;;;;;;11.23;100.00;99349.25;7392246;19;20354;-66
2023/12/24 09:53:35;;;;;;;0.50;0.30;;;;;;;11.21;100.00;99361.13;7390722;19;21109;-66
2023/12/24 09:56:02;;;;;;;0.60;0.40;;;;;;;11.22;100.00;99362.75;7389531;19;20575;-66
2023/12/24 09:58:30;;;;;;;0.90;0.60;;;;;;;11.24;100.00;99355.38;7392852;19;20423;-66
2023/12/24 10:00:57;;;;;;;0.97;0.50;;;;;;;11.27;100.00;99354.16;7387364;19;20874;-66
2023/12/24 10:03:24;;;;;;;1.50;0.55;;;;;;;11.32;100.00;99364.94;7390265;19;20488;-65
2023/12/24 10:05:58;;;;;;;1.17;0.60;;;;;;;11.29;100.00;99366.19;7394361;19;20439;-66
2023/12/24 10:08:25;;;;;;;0.90;0.50;;;;;;;11.21;100.00;99361.91;7399266;19;20352;-65
2023/12/24 10:10:52;;;;;;;0.80;0.47;;;;;;;11.25;100.00;99367.63;7398486;19;20365;-66
2023/12/24 10:13:20;;;;;;;0.77;0.70;;;;;;;11.26;100.00;99345.34;7396106;19;21752;-66
2023/12/24 10:16:04;;;;;;;0.80;0.50;;;;;;;11.27;100.00;99349.66;7397984;19;20390;-65
2023/12/24 10:18:32;;;;;;;2.22;0.90;;;;;;;11.28;100.00;99358.44;7398100;19;20369;-66
2023/12/24 10:21:06;;;;;;;0.90;0.60;;;;;;;11.29;100.00;99342.28;7397826;19;20348;-65
2023/12/24 10:23:33;;;;;;;0.80;0.60;;;;;;;11.32;100.00;99333.88;7396976;19;20367;-66
2023/12/24 10:26:02;;;;;;;1.40;0.60;;;;;;;11.31;100.00;99350.84;7398487;19;20364;-66
2023/12/24 10:28:29;;;;;;;18.52;14.50;;;;;;;11.37;100.00;99317.34;7398165;19;20344;-63
2023/12/24 10:31:09;;;;;;;3.20;2.20;;;;;;;11.58;100.00;99340.06;7395119;19;20376;-62
2023/12/24 10:33:39;;;;;;;13.38;11.02;;;;;;;11.77;100.00;99344.44;7398110;19;20336;-63
2023/12/24 10:36:07;;;;;;;7.68;5.20;;;;;;;11.89;100.00;99347.22;7394302;19;20369;-63
2023/12/24 10:38:35;;;;;;;13.20;9.02;;;;;;;12.01;99.94;99339.38;7398145;19;20365;-62
2023/12/24 10:41:03;;;;;;;6.80;4.45;;;;;;;12.06;99.15;99347.50;7398346;19;20438;-63
2023/12/24 10:43:30;;;;;;;2.30;0.80;;;;;;;12.18;99.26;99351.09;7399025;19;20702;-62
2023/12/24 10:45:57;;;;;;;0.50;0.38;;;;;;;12.17;98.16;99338.81;7397532;19;20442;-66
2023/12/24 10:48:23;;;;;;;1.00;0.50;;;;;;;12.11;97.97;99326.38;7397867;19;20377;-65
2023/12/24 10:50:50;;;;;;;0.55;0.40;;;;;;;12.06;98.06;99334.22;7396153;19;20364;-65
2023/12/24 10:53:17;;;;;;;0.65;0.40;;;;;;;11.98;98.12;99327.31;7394832;19;20360;-66
2023/12/24 10:55:59;;;;;;;1.45;0.50;;;;;;;12.00;98.11;99321.78;7393538;19;20361;-65
2023/12/24 10:58:54;;;;;;;1.00;0.45;;;;;;;11.93;98.47;99326.34;7396283;19;20348;-65
2023/12/24 11:01:21;;;;;;;0.63;0.40;;;;;;;11.86;98.41;99310.44;7395560;19;20795;-65
2023/12/24 11:03:49;;;;;;;0.60;0.40;;;;;;;11.87;98.55;99322.69;7398791;19;20365;-65
2023/12/24 11:06:38;;;;;;;0.93;0.32;;;;;;;11.90;98.20;99305.53;7398336;19;20348;-65
2023/12/24 11:09:18;;;;;;;0.80;0.50;;;;;;;11.94;98.14;99290.75;7395912;19;20892;-65
2023/12/24 11:11:54;;;;;;;1.30;0.50;;;;;;;12.06;98.26;99289.03;7398147;19;20359;-65
2023/12/24 11:14:36;;;;;;;1.05;0.50;;;;;;;12.12;97.56;99288.16;7395303;19;20388;-65
2023/12/24 11:17:05;;;;;;;1.20;0.50;;;;;;;12.06;97.40;99310.28;7395647;19;20384;-65
2023/12/24 11:19:35;;;;;;;0.95;0.40;;;;;;;12.08;97.65;99302.91;7397716;19;20879;-65
2023/12/24 11:22:10;;;;;;;1.15;0.45;;;;;;;12.14;97.54;99298.56;7396913;19;20975;-65
2023/12/24 11:24:44;;;;;;;0.98;0.60;;;;;;;12.12;97.40;99290.81;7397642;19;20377;-65
2023/12/24 11:27:20;;;;;;;0.80;0.50;;;;;;;12.17;97.50;99287.50;7396318;19;20378;-65
2023/12/24 11:29:52;;;;;;;2.60;0.50;;;;;;;12.14;97.17;99286.09;7396672;19;20368;-65
2023/12/24 11:32:25;;;;;;;0.77;0.47;;;;;;;12.09;97.26;99298.41;7394796;19;20437;-64
2023/12/24 11:34:53;;;;;;;0.85;0.50;;;;;;;12.13;97.37;99288.97;7396780;19;20363;-65